Terminal Aerodrome Forecast
Issued by NWS Jackson, KY

Home | Current Version | Previous Version | Text Only | Print | Product List | Glossary On
Versions: 1 2 3 4 5 6 7 8 9 10 11 12 13 14 15 16 17 18 19 20 21
000
FTUS43 KJKL 050805 AAB
TAFLOZ
TAF AMD
KLOZ 050805Z 0508/0606 02010G17KT 5SM -FZRAPL BR BKN009 BKN013
      OVC018
     FM050930 02010G15KT 2SM -SN BKN005 OVC015
     FM051500 05008KT 2SM -SN BR OVC010
     FM052100 05007KT P6SM BKN020=

USA.gov is the U.S. government's official web portal to all federal, state and local government web resources and services.